createdAt,value
2019-02-21T00:00:11.505Z,26.17
2019-02-21T00:02:39.919Z,26.67
2019-02-21T00:05:08.435Z,25.70
2019-02-21T00:07:36.867Z,27.17
2019-02-21T00:10:06.509Z,29.03
2019-02-21T00:12:35.102Z,34.93
2019-02-21T00:15:03.711Z,29.30
2019-02-21T00:17:32.155Z,33.23
2019-02-21T00:20:00.603Z,29.40
2019-02-21T00:22:29.013Z,26.70
2019-02-21T00:24:57.442Z,27.17
2019-02-21T00:27:25.887Z,26.47
2019-02-21T00:29:54.341Z,29.50
2019-02-21T00:32:22.757Z,27.00
2019-02-21T00:34:51.223Z,25.87
2019-02-21T00:37:19.635Z,26.40
2019-02-21T00:39:48.112Z,27.10
2019-02-21T00:42:16.538Z,28.60
2019-02-21T00:44:44.980Z,26.30
2019-02-21T00:47:13.403Z,28.47
2019-02-21T00:49:41.842Z,27.97
2019-02-21T00:52:10.284Z,32.27
2019-02-21T00:54:38.741Z,30.03
2019-02-21T00:57:07.177Z,27.03
2019-02-21T00:59:35.587Z,28.50
2019-02-21T01:02:04.097Z,26.97
2019-02-21T01:04:32.558Z,25.90
2019-02-21T01:07:00.985Z,29.47
2019-02-21T01:09:29.414Z,26.27
2019-02-21T01:11:57.857Z,25.40
2019-02-21T01:14:26.276Z,26.37
2019-02-21T01:16:54.832Z,25.90
2019-02-21T01:19:23.312Z,27.97
2019-02-21T01:21:51.781Z,27.70
2019-02-21T01:24:20.184Z,27.80
2019-02-21T01:26:48.613Z,27.87
2019-02-21T01:29:17.049Z,27.43
2019-02-21T01:31:45.470Z,28.53
2019-02-21T01:34:14.251Z,27.57
2019-02-21T01:36:42.722Z,27.30
2019-02-21T01:39:11.190Z,28.87
2019-02-21T01:41:39.660Z,27.57
2019-02-21T01:44:08.088Z,29.27
2019-02-21T01:46:36.501Z,30.70
2019-02-21T01:49:04.953Z,30.80
2019-02-21T01:51:33.372Z,30.87
2019-02-21T01:54:01.832Z,32.00
2019-02-21T01:56:30.287Z,31.17
2019-02-21T01:58:58.805Z,30.67
2019-02-21T02:01:27.217Z,29.40
2019-02-21T02:03:55.768Z,29.77
2019-02-21T02:06:24.181Z,29.27
2019-02-21T02:08:52.606Z,26.67
2019-02-21T02:11:21.059Z,25.73
2019-02-21T02:13:49.496Z,27.87
2019-02-21T02:16:17.919Z,25.77
2019-02-21T02:18:46.369Z,27.20
2019-02-21T02:21:14.804Z,25.73
2019-02-21T02:23:43.239Z,27.17
2019-02-21T02:26:11.673Z,26.90
2019-02-21T02:28:40.588Z,24.93
2019-02-21T02:31:21.484Z,27.10
2019-02-21T02:33:39.234Z,27.40
2019-02-21T02:36:07.647Z,28.43
2019-02-21T02:38:36.177Z,25.17
2019-02-21T02:41:04.628Z,27.40
2019-02-21T02:43:33.043Z,25.63
2019-02-21T02:46:01.498Z,27.30
2019-02-21T02:48:29.900Z,28.60
2019-02-21T02:50:58.348Z,30.47
2019-02-21T02:53:26.777Z,27.03
2019-02-21T02:55:55.225Z,26.13
2019-02-21T02:58:23.641Z,28.53
2019-02-21T03:00:52.125Z,26.37
2019-02-21T03:03:20.785Z,29.33
2019-02-21T03:05:49.241Z,25.70
2019-02-21T03:08:17.673Z,25.50
2019-02-21T03:10:46.102Z,30.03
2019-02-21T03:13:14.538Z,28.30
2019-02-21T03:15:42.965Z,25.77
2019-02-21T03:18:11.405Z,27.20
2019-02-21T03:20:39.833Z,29.60
2019-02-21T03:23:08.249Z,32.63
2019-02-21T03:25:36.693Z,28.43
2019-02-21T03:28:05.337Z,29.40
2019-02-21T03:30:33.786Z,27.57
2019-02-21T03:33:02.203Z,31.80
2019-02-21T03:35:30.622Z,30.17
2019-02-21T03:37:59.082Z,26.87
2019-02-21T03:40:27.493Z,28.93
2019-02-21T03:42:55.923Z,26.80
2019-02-21T03:45:24.361Z,26.20
2019-02-21T03:47:52.893Z,27.53
2019-02-21T03:50:21.305Z,25.20
2019-02-21T03:52:49.743Z,27.13
2019-02-21T03:55:18.174Z,24.73
2019-02-21T03:57:46.611Z,26.73
2019-02-21T04:00:15.038Z,24.23
2019-02-21T04:02:43.534Z,26.00
2019-02-21T04:05:12.025Z,24.63
2019-02-21T04:07:40.549Z,27.57
2019-02-21T04:10:09.404Z,23.20
2019-02-21T04:12:37.834Z,25.53
2019-02-21T04:15:08.386Z,24.07
2019-02-21T04:17:36.839Z,27.10
2019-02-21T04:20:06.706Z,28.10
2019-02-21T04:22:35.133Z,23.77
2019-02-21T04:25:03.917Z,29.40
2019-02-21T04:27:32.391Z,26.80
2019-02-21T04:30:00.859Z,27.47
2019-02-21T04:32:29.295Z,29.17
2019-02-21T04:34:57.737Z,24.63
2019-02-21T04:37:26.150Z,25.83
2019-02-21T04:39:54.658Z,25.70
2019-02-21T04:42:23.085Z,25.90
2019-02-21T04:44:51.533Z,27.50
2019-02-21T04:47:19.943Z,25.73
2019-02-21T04:49:48.384Z,26.03
2019-02-21T04:52:16.805Z,22.10
2019-02-21T04:54:45.239Z,22.57
2019-02-21T04:57:13.725Z,22.95
2019-02-21T04:59:42.157Z,24.47
2019-02-21T05:02:10.578Z,22.53
2019-02-21T05:04:39.018Z,21.57
2019-02-21T05:07:07.443Z,22.43
2019-02-21T05:09:35.884Z,21.33
2019-02-21T05:12:04.290Z,20.83
2019-02-21T05:14:32.734Z,22.27
2019-02-21T05:17:01.213Z,23.73
2019-02-21T05:19:29.682Z,20.10
2019-02-21T05:21:58.109Z,20.73
2019-02-21T05:24:26.567Z,23.30
2019-02-21T05:26:56.634Z,23.80
2019-02-21T05:29:25.060Z,20.67
2019-02-21T05:32:10.337Z,20.33
2019-02-21T05:34:46.080Z,23.00
2019-02-21T05:37:22.116Z,20.67
2019-02-21T05:39:58.148Z,19.73
2019-02-21T05:42:30.928Z,28.77
2019-02-21T05:45:10.991Z,24.90
2019-02-21T05:47:43.714Z,28.43
2019-02-21T05:50:18.040Z,24.33
2019-02-21T05:52:56.964Z,24.20
2019-02-21T05:55:27.046Z,25.50
2019-02-21T05:57:59.694Z,28.17
2019-02-21T06:00:38.605Z,26.93
2019-02-21T06:03:08.676Z,21.40
2019-02-21T06:05:41.414Z,21.00
2019-02-21T06:08:11.579Z,23.10
2019-02-21T06:10:44.627Z,21.77
2019-02-21T06:13:20.229Z,24.67
2019-02-21T06:15:50.291Z,26.23
2019-02-21T06:18:25.953Z,25.27
2019-02-21T06:20:58.851Z,23.40
2019-02-21T06:23:31.876Z,23.57
2019-02-21T06:26:01.958Z,28.73
2019-02-21T06:28:32.036Z,21.93
2019-02-21T06:31:02.100Z,22.67
2019-02-21T06:33:30.535Z,19.77
2019-02-21T06:35:58.965Z,17.93
2019-02-21T06:38:27.430Z,24.60
2019-02-21T06:40:55.854Z,20.40
2019-02-21T06:43:24.346Z,21.83
2019-02-21T06:45:52.774Z,19.97
2019-02-21T06:48:21.240Z,24.27
2019-02-21T06:50:49.736Z,19.90
2019-02-21T06:53:18.180Z,22.17
2019-02-21T06:55:46.619Z,21.13
2019-02-21T06:58:15.072Z,20.80
2019-02-21T07:00:43.477Z,21.80
2019-02-21T07:03:15.914Z,19.67
2019-02-21T07:05:42.099Z,20.47
2019-02-21T07:08:10.527Z,20.50
2019-02-21T07:10:38.984Z,22.33
2019-02-21T07:13:07.458Z,22.77
2019-02-21T07:15:35.932Z,25.60
2019-02-21T07:18:04.421Z,22.20
2019-02-21T07:20:32.875Z,21.53
2019-02-21T07:23:01.294Z,22.60
2019-02-21T07:25:34.216Z,23.13
2019-02-21T07:28:11.190Z,22.50
2019-02-21T07:30:32.955Z,22.20
2019-02-21T07:33:01.459Z,21.70
2019-02-21T07:35:29.899Z,26.17
2019-02-21T07:37:58.343Z,24.40
2019-02-21T07:40:26.846Z,26.60
2019-02-21T07:42:55.275Z,26.00
2019-02-21T07:45:23.802Z,24.87
2019-02-21T07:47:52.234Z,22.77
2019-02-21T07:50:23.057Z,21.80
2019-02-21T07:53:01.700Z,24.23
2019-02-21T07:55:21.052Z,23.60
2019-02-21T07:57:49.490Z,21.30
2019-02-21T08:00:17.935Z,24.00
2019-02-21T08:02:46.357Z,31.40
2019-02-21T08:05:14.858Z,24.37
2019-02-21T08:07:43.302Z,24.80
2019-02-21T08:10:12.398Z,28.97
2019-02-21T08:12:40.853Z,27.93
2019-02-21T08:15:11.972Z,26.17
2019-02-21T08:17:40.693Z,23.50
2019-02-21T08:20:11.148Z,25.27
2019-02-21T08:22:39.683Z,24.10
2019-02-21T08:25:10.089Z,26.23
2019-02-21T08:27:38.672Z,28.90
2019-02-21T08:30:12.616Z,23.50
2019-02-21T08:32:58.514Z,24.10
2019-02-21T08:35:27.241Z,23.83
2019-02-21T08:37:55.691Z,24.93
2019-02-21T08:40:25.132Z,24.13
2019-02-21T08:42:53.748Z,23.63
2019-02-21T08:45:22.238Z,27.73
2019-02-21T08:47:50.690Z,22.03
2019-02-21T08:50:22.118Z,20.13
2019-02-21T08:52:49.281Z,21.70
2019-02-21T08:55:17.711Z,22.50
2019-02-21T08:57:46.152Z,21.50
2019-02-21T09:00:16.126Z,22.97
2019-02-21T09:02:44.698Z,21.57
2019-02-21T09:05:14.173Z,26.43
2019-02-21T09:07:42.699Z,22.20
2019-02-21T09:10:12.257Z,24.43
2019-02-21T09:12:40.823Z,24.63
2019-02-21T09:15:12.181Z,21.53
2019-02-21T09:17:40.629Z,22.00
2019-02-21T09:20:10.489Z,25.33
2019-02-21T09:22:38.937Z,22.60
2019-02-21T09:25:12.434Z,22.40
2019-02-21T09:27:40.892Z,21.47
2019-02-21T09:30:19.002Z,21.80
2019-02-21T09:32:47.627Z,23.10
2019-02-21T09:35:16.039Z,21.03
2019-02-21T09:37:44.499Z,19.90
2019-02-21T09:40:14.396Z,21.13
2019-02-21T09:42:42.823Z,21.93
2019-02-21T09:45:16.600Z,22.27
2019-02-21T09:47:45.101Z,21.27
2019-02-21T09:50:13.902Z,30.73
2019-02-21T09:52:42.397Z,21.60
2019-02-21T09:55:16.080Z,20.57
2019-02-21T09:57:44.520Z,21.47
2019-02-21T10:00:15.585Z,22.03
2019-02-21T10:02:44.095Z,20.53
2019-02-21T10:05:12.605Z,20.90
2019-02-21T10:07:41.096Z,19.47
2019-02-21T10:10:12.382Z,31.33
2019-02-21T10:12:40.801Z,22.93
2019-02-21T10:15:11.699Z,20.43
2019-02-21T10:17:40.183Z,22.87
2019-02-21T10:20:11.182Z,21.67
2019-02-21T10:22:39.683Z,19.57
2019-02-21T10:25:13.875Z,19.73
2019-02-21T10:27:42.311Z,20.77
2019-02-21T10:30:13.625Z,20.73
2019-02-21T10:32:42.081Z,20.43
2019-02-21T10:35:10.585Z,21.23
2019-02-21T10:37:39.097Z,23.87
2019-02-21T10:40:12.352Z,19.30
2019-02-21T10:42:40.814Z,20.20
2019-02-21T10:45:11.975Z,20.60
2019-02-21T10:47:40.411Z,21.00
2019-02-21T10:50:14.556Z,19.20
2019-02-21T10:52:43.081Z,21.63
2019-02-21T10:55:11.843Z,20.80
2019-02-21T10:57:40.309Z,20.20
2019-02-21T11:00:23.855Z,19.70
2019-02-21T11:02:52.308Z,21.80
2019-02-21T11:05:20.728Z,22.00
2019-02-21T11:07:49.254Z,20.90
2019-02-21T11:10:21.005Z,20.63
2019-02-21T11:12:49.530Z,21.13
2019-02-21T11:15:19.589Z,19.30
2019-02-21T11:17:48.036Z,19.23
2019-02-21T11:20:19.759Z,17.10
2019-02-21T11:22:48.293Z,18.73
2019-02-21T11:25:16.813Z,21.20
2019-02-21T11:27:45.277Z,20.83
2019-02-21T11:30:15.752Z,18.37
2019-02-21T11:32:44.214Z,19.10
2019-02-21T11:35:13.439Z,14.20
2019-02-21T11:37:44.411Z,17.40
2019-02-21T11:40:14.614Z,14.00
2019-02-21T11:42:43.146Z,14.70
2019-02-21T11:45:18.839Z,15.70
2019-02-21T11:47:47.369Z,13.87
2019-02-21T11:50:19.366Z,15.37
2019-02-21T11:52:47.845Z,12.53
2019-02-21T11:55:18.694Z,15.83
2019-02-21T11:57:47.200Z,14.83
2019-02-21T12:00:24.101Z,20.00
2019-02-21T12:02:52.593Z,15.13
2019-02-21T12:05:30.680Z,14.80
2019-02-21T12:07:51.178Z,14.27
2019-02-21T12:10:19.775Z,16.13
2019-02-21T12:12:48.248Z,13.87
2019-02-21T12:15:17.245Z,15.73
2019-02-21T12:17:45.653Z,15.03
2019-02-21T12:20:18.205Z,15.40
2019-02-21T12:22:47.065Z,16.70
2019-02-21T12:25:17.626Z,16.87
2019-02-21T12:27:46.024Z,13.93
2019-02-21T12:30:18.741Z,13.83
2019-02-21T12:32:47.549Z,13.57
2019-02-21T12:35:16.080Z,14.80
2019-02-21T12:37:44.508Z,17.00
2019-02-21T12:40:21.369Z,16.20
2019-02-21T12:42:49.793Z,17.10
2019-02-21T12:45:19.783Z,18.27
2019-02-21T12:47:53.155Z,16.20
2019-02-21T12:50:19.016Z,20.27
2019-02-21T12:52:47.444Z,18.00
2019-02-21T12:55:27.017Z,14.40
2019-02-21T12:57:46.045Z,16.43
2019-02-21T13:00:21.605Z,17.17
2019-02-21T13:02:50.034Z,18.03
2019-02-21T13:05:18.563Z,16.77
2019-02-21T13:07:47.070Z,16.53
2019-02-21T13:10:17.652Z,18.70
2019-02-21T13:12:46.215Z,22.53
2019-02-21T13:15:15.393Z,21.87
2019-02-21T13:17:43.876Z,24.13
2019-02-21T13:20:14.022Z,21.47
2019-02-21T13:22:42.543Z,21.37
2019-02-21T13:25:12.914Z,20.30
2019-02-21T13:27:41.390Z,19.80
2019-02-21T13:30:14.721Z,20.77
2019-02-21T13:32:43.216Z,24.20
2019-02-21T13:35:13.575Z,21.60
2019-02-21T13:37:42.202Z,18.50
2019-02-21T13:40:15.195Z,22.27
2019-02-21T13:42:43.787Z,21.60
2019-02-21T13:45:17.405Z,20.30
2019-02-21T13:47:46.512Z,21.30
2019-02-21T13:50:19.145Z,20.67
2019-02-21T13:52:47.810Z,17.63
2019-02-21T13:55:16.285Z,19.30
2019-02-21T13:57:47.664Z,17.00
2019-02-21T14:00:18.441Z,18.40
2019-02-21T14:02:46.927Z,17.10
2019-02-21T14:05:15.409Z,17.53
2019-02-21T14:07:43.949Z,16.40
2019-02-21T14:10:13.715Z,16.63
2019-02-21T14:12:42.216Z,14.43
2019-02-21T14:15:28.084Z,14.30
2019-02-21T14:17:56.525Z,15.27
2019-02-21T14:20:25.050Z,18.20
2019-02-21T14:22:53.469Z,15.80
2019-02-21T14:25:21.923Z,14.83
2019-02-21T14:27:50.357Z,15.17
2019-02-21T14:30:19.989Z,14.77
2019-02-21T14:32:48.478Z,13.47
2019-02-21T14:35:16.997Z,15.20
2019-02-21T14:37:45.569Z,14.87
2019-02-21T14:40:17.534Z,13.50
2019-02-21T14:42:45.962Z,14.07
2019-02-21T14:45:19.209Z,14.67
2019-02-21T14:47:47.672Z,13.20
2019-02-21T14:50:16.303Z,12.50
2019-02-21T14:52:45.061Z,12.77
2019-02-21T14:55:18.071Z,12.27
2019-02-21T14:57:46.689Z,13.57
2019-02-21T15:00:22.792Z,13.60
2019-02-21T15:02:51.238Z,12.77
2019-02-21T15:05:20.050Z,14.47
2019-02-21T15:07:48.561Z,37.70
2019-02-21T15:10:17.278Z,11.17
2019-02-21T15:12:45.874Z,15.90
2019-02-21T15:15:16.671Z,13.87
2019-02-21T15:17:45.129Z,14.70
2019-02-21T15:20:15.290Z,15.83
2019-02-21T15:22:43.760Z,15.33
2019-02-21T15:25:12.177Z,14.37
2019-02-21T15:27:40.642Z,18.03
2019-02-21T15:30:17.348Z,18.60
2019-02-21T15:32:45.819Z,17.37
2019-02-21T15:35:14.404Z,21.17
2019-02-21T15:37:44.808Z,19.47
2019-02-21T15:40:13.194Z,17.90
2019-02-21T15:42:41.630Z,17.73
2019-02-21T15:45:22.881Z,17.70
2019-02-21T15:47:45.982Z,17.53
2019-02-21T15:50:15.178Z,17.77
2019-02-21T15:52:44.806Z,17.40
2019-02-21T15:55:18.242Z,17.60
2019-02-21T15:57:47.723Z,21.00
2019-02-21T16:00:23.498Z,18.97
2019-02-21T16:02:51.933Z,16.23
2019-02-21T16:05:20.515Z,18.93
2019-02-21T16:07:48.965Z,17.13
2019-02-21T16:10:23.368Z,16.13
2019-02-21T16:12:52.144Z,14.70
2019-02-21T16:15:20.923Z,15.17
2019-02-21T16:17:49.442Z,15.03
2019-02-21T16:20:19.021Z,16.10
2019-02-21T16:22:47.542Z,16.67
2019-02-21T16:25:24.061Z,15.87
2019-02-21T16:27:55.118Z,14.60
2019-02-21T16:30:22.856Z,18.63
2019-02-21T16:32:51.295Z,17.60
2019-02-21T16:35:19.842Z,18.30
2019-02-21T16:37:48.284Z,16.87
2019-02-21T16:40:20.396Z,17.70
2019-02-21T16:42:48.903Z,19.87
2019-02-21T16:45:19.465Z,21.63
2019-02-21T16:47:47.912Z,26.90
2019-02-21T16:50:16.552Z,25.83
2019-02-21T16:52:45.100Z,25.47
2019-02-21T16:55:19.076Z,26.50
2019-02-21T16:57:47.594Z,34.67
2019-02-21T17:00:20.322Z,34.20
2019-02-21T17:02:48.846Z,43.53
2019-02-21T17:05:17.366Z,45.20
2019-02-21T17:07:45.831Z,45.93
2019-02-21T17:10:15.670Z,31.97
2019-02-21T17:12:44.128Z,31.67
2019-02-21T17:15:17.544Z,30.00
2019-02-21T17:17:46.044Z,36.90
2019-02-21T17:20:16.419Z,33.13
2019-02-21T17:22:44.945Z,29.53
2019-02-21T17:25:14.942Z,35.00
2019-02-21T17:27:44.450Z,33.73
2019-02-21T17:30:15.312Z,33.23
2019-02-21T17:32:43.795Z,32.20
2019-02-21T17:35:12.514Z,29.10
2019-02-21T17:37:41.028Z,30.90
2019-02-21T17:40:12.488Z,37.47
2019-02-21T17:42:41.969Z,66.83
2019-02-21T17:45:10.935Z,52.43
2019-02-21T17:47:39.400Z,47.47
2019-02-21T17:50:11.109Z,38.43
2019-02-21T17:52:39.598Z,35.60
2019-02-21T17:55:09.874Z,34.47
2019-02-21T17:57:38.538Z,31.07
2019-02-21T18:00:22.532Z,35.73
2019-02-21T18:02:51.086Z,31.70
2019-02-21T18:05:19.633Z,31.70
2019-02-21T18:07:48.223Z,28.80
2019-02-21T18:10:17.799Z,32.97
2019-02-21T18:12:46.255Z,29.40
2019-02-21T18:15:15.752Z,32.20
2019-02-21T18:17:44.296Z,31.50
2019-02-21T18:20:14.299Z,34.33
2019-02-21T18:22:42.949Z,33.87
2019-02-21T18:25:17.100Z,39.70
2019-02-21T18:27:45.701Z,37.70
2019-02-21T18:30:17.771Z,40.70
2019-02-21T18:32:46.201Z,39.53
2019-02-21T18:35:14.865Z,38.30
2019-02-21T18:37:47.510Z,37.93
2019-02-21T18:40:19.693Z,41.47
2019-02-21T18:42:46.955Z,41.47
2019-02-21T18:45:15.549Z,46.67
2019-02-21T18:47:44.057Z,46.50
2019-02-21T18:50:13.782Z,45.60
2019-02-21T18:52:42.304Z,38.33
2019-02-21T18:55:11.032Z,43.77
2019-02-21T18:57:39.445Z,45.70
2019-02-21T19:00:19.985Z,40.07
2019-02-21T19:02:48.585Z,36.37
2019-02-21T19:05:17.216Z,34.17
2019-02-21T19:07:45.690Z,61.20
2019-02-21T19:10:19.012Z,61.33
2019-02-21T19:12:47.654Z,52.73
2019-02-21T19:15:20.613Z,53.67
2019-02-21T19:17:49.205Z,71.97
2019-02-21T19:20:19.135Z,58.07
2019-02-21T19:22:47.734Z,52.17
2019-02-21T19:25:16.397Z,42.07
2019-02-21T19:27:45.053Z,38.17
2019-02-21T19:30:19.575Z,42.77
2019-02-21T19:32:48.185Z,44.23
2019-02-21T19:35:16.947Z,37.80
2019-02-21T19:37:45.439Z,34.70
2019-02-21T19:40:14.267Z,38.47
2019-02-21T19:42:42.847Z,33.43
2019-02-21T19:45:11.436Z,34.40
2019-02-21T19:47:40.117Z,33.23
2019-02-21T19:50:09.443Z,43.77
2019-02-21T19:52:38.052Z,37.83
2019-02-21T19:55:08.730Z,45.60
2019-02-21T19:57:37.339Z,50.23
2019-02-21T20:00:21.958Z,69.67
2019-02-21T20:02:50.597Z,55.97
2019-02-21T20:05:19.285Z,45.00
2019-02-21T20:07:47.926Z,43.90
2019-02-21T20:10:16.637Z,39.33
2019-02-21T20:12:45.311Z,34.73
2019-02-21T20:15:14.099Z,41.73
2019-02-21T20:17:42.739Z,41.63
2019-02-21T20:20:17.275Z,40.60
2019-02-21T20:22:45.880Z,39.07
2019-02-21T20:25:14.593Z,32.90
2019-02-21T20:27:43.071Z,34.77
2019-02-21T20:30:17.447Z,54.20
2019-02-21T20:32:46.116Z,33.73
2019-02-21T20:35:15.283Z,35.93
2019-02-21T20:37:43.895Z,31.17
2019-02-21T20:40:12.838Z,31.73
2019-02-21T20:42:41.529Z,31.80
2019-02-21T20:45:14.095Z,36.40
2019-02-21T20:47:42.726Z,33.10
2019-02-21T20:50:12.138Z,34.67
2019-02-21T20:52:40.884Z,65.30
2019-02-21T20:55:10.947Z,142.03
2019-02-21T20:57:39.670Z,101.57
2019-02-21T21:00:11.357Z,148.90
2019-02-21T21:02:39.968Z,81.20
2019-02-21T21:05:08.736Z,83.17
2019-02-21T21:07:37.323Z,85.90
2019-02-21T21:10:14.710Z,57.07
2019-02-21T21:12:43.211Z,84.47
2019-02-21T21:15:13.454Z,141.03
2019-02-21T21:17:41.946Z,62.53
2019-02-21T21:20:16.660Z,67.80
2019-02-21T21:22:42.438Z,47.80
2019-02-21T21:25:15.502Z,44.47
2019-02-21T21:27:44.012Z,33.17
2019-02-21T21:30:15.068Z,144.27
2019-02-21T21:32:43.628Z,99.33
2019-02-21T21:35:12.325Z,61.37
2019-02-21T21:37:40.996Z,55.67
2019-02-21T21:40:16.923Z,45.53
2019-02-21T21:42:45.619Z,48.87
2019-02-21T21:45:18.492Z,48.83
2019-02-21T21:47:47.046Z,43.47
2019-02-21T21:50:18.173Z,52.13
2019-02-21T21:52:46.671Z,35.40
2019-02-21T21:55:15.391Z,30.93
2019-02-21T21:57:44.022Z,31.47
2019-02-21T22:00:23.320Z,31.50
2019-02-21T22:02:51.854Z,32.87
2019-02-21T22:05:20.529Z,27.90
2019-02-21T22:07:49.471Z,27.97
2019-02-21T22:10:18.205Z,27.83
2019-02-21T22:12:46.733Z,26.50
2019-02-21T22:15:20.261Z,26.03
2019-02-21T22:17:48.715Z,26.93
2019-02-21T22:20:17.161Z,26.33
2019-02-21T22:22:45.772Z,25.70
2019-02-21T22:25:14.665Z,24.60
2019-02-21T22:27:43.277Z,25.70
2019-02-21T22:30:14.228Z,24.33
2019-02-21T22:32:42.886Z,32.60
2019-02-21T22:35:11.419Z,36.03
2019-02-21T22:37:39.980Z,24.73
2019-02-21T22:40:11.320Z,21.63
2019-02-21T22:42:39.837Z,20.80
2019-02-21T22:45:09.405Z,19.87
2019-02-21T22:47:37.929Z,19.03
2019-02-21T22:50:09.610Z,22.30
2019-02-21T22:52:38.038Z,21.27
2019-02-21T22:55:10.106Z,24.00
2019-02-21T22:57:37.892Z,25.90
2019-02-21T23:00:54.431Z,24.90
2019-02-21T23:03:25.606Z,24.00
2019-02-21T23:06:09.017Z,23.87
2019-02-21T23:08:44.893Z,22.50
2019-02-21T23:11:13.476Z,21.50
2019-02-21T23:13:42.383Z,22.17
2019-02-21T23:16:10.979Z,22.00
2019-02-21T23:18:39.436Z,22.77
2019-02-21T23:21:08.077Z,25.90
2019-02-21T23:23:37.129Z,22.77
2019-02-21T23:26:05.661Z,22.60
2019-02-21T23:28:34.123Z,22.10
2019-02-21T23:31:02.593Z,22.77
2019-02-21T23:33:32.759Z,20.40
2019-02-21T23:36:01.242Z,21.93
2019-02-21T23:38:29.698Z,20.93
2019-02-21T23:40:58.257Z,22.20
2019-02-21T23:43:26.817Z,23.60
2019-02-21T23:45:55.435Z,21.80
2019-02-21T23:48:23.857Z,22.60
2019-02-21T23:50:52.296Z,22.17
2019-02-21T23:53:20.710Z,22.77
2019-02-21T23:55:49.168Z,27.17
2019-02-21T23:58:17.599Z,25.80
